Terminal Aerodrome Forecast
Issued by NWS Wilmington, OH

Current Version | Previous Version | Text Only | Print | Product List | Glossary On
Versions: 1 2 3 4 5 6 7 8 9 10 11 12 13 14 15 16 17 18 19 20 21 22 23 24 25 26
000 FTUS41 KILN 290538 TAFCVG TAF KCVG 290538Z 2906/3012 19004KT P6SM BKN120 FM291100 20005KT P6SM VCSH BKN080 FM291300 21006KT P6SM FEW040 SCT080 FM291800 21008KT P6SM VCTS SCT040CB BKN250 FM292000 23008KT P6SM SCT040 BKN250 FM292300 23004KT P6SM VCTS BKN050CB FM300200 25003KT P6SM SCT050 FM300900 29003KT 5SM BR SKC=

USA.gov is the U.S. government's official web portal to all federal, state and local government web resources and services.